createdAt,value
2016-07-31T00:00:16.779Z,66.5
2016-07-31T00:01:16.832Z,66.2
2016-07-31T00:02:16.784Z,66.3
2016-07-31T00:03:16.786Z,66.4
2016-07-31T00:04:16.786Z,66.3
2016-07-31T00:05:16.785Z,66.3
2016-07-31T00:06:16.789Z,66.4
2016-07-31T00:07:16.788Z,66.4
2016-07-31T00:08:16.990Z,66.88
2016-07-31T00:09:16.790Z,66.2
2016-07-31T00:10:16.782Z,66.5
2016-07-31T00:11:16.786Z,66.6
2016-07-31T00:12:16.799Z,66.78
2016-07-31T00:13:16.990Z,66.6
2016-07-31T00:14:16.791Z,66.6
2016-07-31T00:15:16.795Z,66.4
2016-07-31T00:16:16.990Z,66.02
2016-07-31T00:17:16.791Z,66.3
2016-07-31T00:18:16.788Z,66.5
2016-07-31T00:19:16.793Z,66.02
2016-07-31T00:20:16.794Z,66.4
2016-07-31T00:21:16.792Z,66.5
2016-07-31T00:22:16.795Z,66.5
2016-07-31T00:23:16.794Z,66.6
2016-07-31T00:24:16.795Z,66.78
2016-07-31T00:25:16.796Z,66.5
2016-07-31T00:26:16.797Z,66.4
2016-07-31T00:27:16.802Z,66.3
2016-07-31T00:28:16.798Z,66.88
2016-07-31T00:29:16.797Z,66.78
2016-07-31T00:30:16.797Z,66.88
2016-07-31T00:31:16.795Z,66.02
2016-07-31T00:32:16.800Z,66.66
2016-07-31T00:33:16.800Z,66.85
2016-07-31T00:34:16.806Z,66.4
2016-07-31T00:35:16.807Z,66.78
2016-07-31T00:36:17.000Z,66.5
2016-07-31T00:37:16.799Z,66.6
2016-07-31T00:38:16.805Z,66.2
2016-07-31T00:39:16.807Z,66.78
2016-07-31T00:40:16.799Z,66.56
2016-07-31T00:41:16.805Z,66.08
2016-07-31T00:42:16.804Z,66.27
2016-07-31T00:43:16.800Z,66.66
2016-07-31T00:44:16.808Z,66.56
2016-07-31T00:45:16.805Z,66.47
2016-07-31T00:46:16.814Z,66.11
2016-07-31T00:47:16.804Z,66.85
2016-07-31T00:48:16.808Z,66.75
2016-07-31T00:49:16.806Z,66.27
2016-07-31T00:50:16.801Z,66.37
2016-07-31T00:51:16.805Z,66.47
2016-07-31T00:52:16.805Z,66.47
2016-07-31T00:53:16.803Z,66.47
2016-07-31T00:54:16.804Z,66.56
2016-07-31T00:55:16.807Z,66.66
2016-07-31T00:56:16.808Z,66.66
2016-07-31T00:57:16.817Z,66.66
2016-07-31T00:58:17.005Z,66.47
2016-07-31T00:59:16.816Z,66.66
2016-07-31T01:00:16.812Z,66.27
2016-07-31T01:01:16.867Z,66.27
2016-07-31T01:02:16.811Z,66.47
2016-07-31T01:03:16.811Z,66.47
2016-07-31T01:04:16.808Z,66.17
2016-07-31T01:05:16.807Z,66.47
2016-07-31T01:06:16.820Z,66.37
2016-07-31T01:07:16.809Z,66.56
2016-07-31T01:08:16.816Z,66.56
2016-07-31T01:09:16.814Z,66.17
2016-07-31T01:10:16.809Z,65.98
2016-07-31T01:11:16.813Z,66.75
2016-07-31T01:12:16.810Z,66.08
2016-07-31T01:13:16.821Z,66.56
2016-07-31T01:14:16.820Z,66.56
2016-07-31T01:15:16.815Z,66.47
2016-07-31T01:16:16.811Z,66.47
2016-07-31T01:17:16.814Z,66.47
2016-07-31T01:18:16.813Z,66.37
2016-07-31T01:19:16.813Z,66.66
2016-07-31T01:20:16.820Z,66.66
2016-07-31T01:21:16.817Z,66.66
2016-07-31T01:22:17.014Z,66.56
2016-07-31T01:23:16.820Z,66.56
2016-07-31T01:24:16.819Z,66.56
2016-07-31T01:25:16.816Z,66.56
2016-07-31T01:26:17.021Z,66.66
2016-07-31T01:27:16.825Z,66.56
2016-07-31T01:28:16.816Z,66.27
2016-07-31T01:29:16.818Z,66.47
2016-07-31T01:30:16.813Z,66.37
2016-07-31T01:31:16.817Z,66.47
2016-07-31T01:32:16.816Z,66.56
2016-07-31T01:33:16.817Z,66.37
2016-07-31T01:34:16.819Z,66.27
2016-07-31T01:35:16.815Z,66.37
2016-07-31T01:36:16.815Z,66.56
2016-07-31T01:37:16.822Z,66.37
2016-07-31T01:38:16.820Z,66.56
2016-07-31T01:39:16.819Z,66.37
2016-07-31T01:40:16.824Z,66.47
2016-07-31T01:41:16.822Z,66.47
2016-07-31T01:42:16.821Z,66.37
2016-07-31T01:43:16.822Z,66.37
2016-07-31T01:44:16.820Z,66.47
2016-07-31T01:45:16.823Z,66.56
2016-07-31T01:46:16.823Z,66.66
2016-07-31T01:47:16.829Z,66.47
2016-07-31T01:48:16.823Z,66.56
2016-07-31T01:49:16.820Z,66.47
2016-07-31T01:50:16.823Z,66.37
2016-07-31T01:51:16.823Z,66.56
2016-07-31T01:52:16.822Z,66.56
2016-07-31T01:53:16.822Z,66.37
2016-07-31T01:54:16.824Z,66.47
2016-07-31T01:55:16.821Z,66.47
2016-07-31T01:56:16.824Z,66.56
2016-07-31T01:57:16.825Z,66.47
2016-07-31T01:59:16.819Z,66.66
2016-07-31T02:00:16.822Z,66.47
2016-07-31T02:01:17.071Z,66.37
2016-07-31T02:02:16.821Z,66.47
2016-07-31T02:03:16.824Z,66.56
2016-07-31T02:04:16.827Z,66.56
2016-07-31T02:05:16.824Z,66.37
2016-07-31T02:06:16.822Z,66.75
2016-07-31T02:07:16.826Z,66.37
2016-07-31T02:08:16.824Z,66.47
2016-07-31T02:09:16.829Z,66.75
2016-07-31T02:10:16.820Z,66.24
2016-07-31T02:11:16.825Z,66.37
2016-07-31T02:12:17.024Z,66.14
2016-07-31T02:14:16.825Z,66.43
2016-07-31T02:15:16.827Z,66.95
2016-07-31T02:16:16.828Z,66.53
2016-07-31T02:17:16.827Z,66.27
2016-07-31T02:18:16.826Z,66.82
2016-07-31T02:19:16.827Z,66.66
2016-07-31T02:20:16.825Z,66.72
2016-07-31T02:21:17.025Z,66.63
2016-07-31T02:22:16.824Z,66.63
2016-07-31T02:23:16.826Z,66.66
2016-07-31T02:24:16.823Z,66.53
2016-07-31T02:25:16.838Z,66.63
2016-07-31T02:26:16.842Z,66.66
2016-07-31T02:27:16.824Z,66.72
2016-07-31T02:29:16.823Z,66.72
2016-07-31T02:30:16.825Z,66.63
2016-07-31T02:31:16.822Z,66.63
2016-07-31T02:32:16.828Z,66.63
2016-07-31T02:33:16.826Z,66.24
2016-07-31T02:34:16.828Z,66.72
2016-07-31T02:35:16.834Z,66.63
2016-07-31T02:36:16.822Z,66.43
2016-07-31T02:37:16.830Z,66.24
2016-07-31T02:38:16.828Z,66.72
2016-07-31T02:39:16.827Z,66.53
2016-07-31T02:40:16.824Z,67.01
2016-07-31T02:41:16.824Z,66.72
2016-07-31T02:42:16.843Z,66.72
2016-07-31T02:43:17.024Z,66.82
2016-07-31T02:44:16.823Z,66.82
2016-07-31T02:45:16.822Z,66.72
2016-07-31T02:46:16.821Z,66.91
2016-07-31T02:47:16.822Z,66.63
2016-07-31T02:48:16.828Z,66.63
2016-07-31T02:49:16.831Z,66.72
2016-07-31T02:50:16.843Z,66.72
2016-07-31T02:51:16.833Z,66.82
2016-07-31T02:52:16.828Z,66.82
2016-07-31T02:53:16.825Z,66.91
2016-07-31T02:54:16.824Z,66.72
2016-07-31T02:55:16.825Z,66.91
2016-07-31T02:56:16.827Z,66.72
2016-07-31T02:57:16.829Z,66.91
2016-07-31T02:58:16.826Z,66.72
2016-07-31T02:59:16.828Z,66.72
2016-07-31T03:00:16.826Z,66.82
2016-07-31T03:01:16.875Z,66.72
2016-07-31T03:02:16.825Z,66.82
2016-07-31T03:03:16.826Z,66.72
2016-07-31T03:04:16.819Z,66.82
2016-07-31T03:05:16.826Z,66.72
2016-07-31T03:06:16.827Z,66.72
2016-07-31T03:07:16.828Z,66.91
2016-07-31T03:08:16.825Z,66.82
2016-07-31T03:09:16.828Z,66.53
2016-07-31T03:10:16.827Z,66.91
2016-07-31T03:11:16.825Z,66.91
2016-07-31T03:12:16.826Z,66.82
2016-07-31T03:13:16.828Z,66.53
2016-07-31T03:14:16.828Z,66.53
2016-07-31T03:15:16.826Z,66.82
2016-07-31T03:16:16.825Z,66.53
2016-07-31T03:17:16.830Z,66.91
2016-07-31T03:18:16.824Z,66.91
2016-07-31T03:19:16.829Z,66.82
2016-07-31T03:20:16.825Z,66.91
2016-07-31T03:21:16.824Z,66.53
2016-07-31T03:22:16.825Z,66.72
2016-07-31T03:23:16.826Z,66.53
2016-07-31T03:24:16.822Z,66.82
2016-07-31T03:25:16.822Z,66.53
2016-07-31T03:26:17.032Z,66.72
2016-07-31T03:27:16.821Z,66.91
2016-07-31T03:28:17.027Z,66.82
2016-07-31T03:29:16.834Z,66.91
2016-07-31T03:30:16.829Z,66.91
2016-07-31T03:31:16.830Z,66.82
2016-07-31T03:32:16.829Z,66.91
2016-07-31T03:33:16.821Z,66.82
2016-07-31T03:34:16.829Z,66.5
2016-07-31T03:35:16.827Z,66.72
2016-07-31T03:36:17.024Z,66.78
2016-07-31T03:37:16.826Z,66.72
2016-07-31T03:38:16.824Z,66.72
2016-07-31T03:39:16.826Z,66.53
2016-07-31T03:40:16.829Z,66.78
2016-07-31T03:41:16.834Z,66.82
2016-07-31T03:42:16.828Z,66.69
2016-07-31T03:43:16.827Z,66.59
2016-07-31T03:44:16.825Z,66.4
2016-07-31T03:45:16.823Z,66.4
2016-07-31T03:46:16.822Z,66.5
2016-07-31T03:47:16.825Z,66.63
2016-07-31T03:48:16.819Z,66.5
2016-07-31T03:49:16.820Z,66.59
2016-07-31T03:50:16.824Z,66.59
2016-07-31T03:51:16.825Z,66.69
2016-07-31T03:52:16.827Z,66.59
2016-07-31T03:53:16.823Z,66.69
2016-07-31T03:54:16.823Z,66.59
2016-07-31T03:55:17.025Z,66.59
2016-07-31T03:56:16.820Z,66.59
2016-07-31T03:57:16.825Z,66.59
2016-07-31T03:58:16.830Z,66.4
2016-07-31T03:59:16.820Z,66.5
2016-07-31T04:00:16.823Z,66.5
2016-07-31T04:01:16.873Z,66.59
2016-07-31T04:02:16.821Z,66.59
2016-07-31T04:03:16.827Z,66.69
2016-07-31T04:04:16.823Z,66.78
2016-07-31T04:05:16.828Z,66.59
2016-07-31T04:06:16.819Z,66.5
2016-07-31T04:07:16.818Z,66.5
2016-07-31T04:08:16.826Z,66.5
2016-07-31T04:09:16.820Z,66.69
2016-07-31T04:10:16.823Z,66.4
2016-07-31T04:11:16.820Z,66.5
2016-07-31T04:12:16.820Z,66.59
2016-07-31T04:13:16.821Z,66.59
2016-07-31T04:14:16.824Z,66.59
2016-07-31T04:15:17.014Z,66.59
2016-07-31T04:16:16.827Z,66.4
2016-07-31T04:17:16.831Z,66.5
2016-07-31T04:18:16.820Z,66.5
2016-07-31T04:19:16.816Z,66.5
2016-07-31T04:20:16.819Z,66.69
2016-07-31T04:21:16.818Z,66.78
2016-07-31T04:22:16.815Z,66.4
2016-07-31T04:23:16.815Z,66.59
2016-07-31T04:24:17.020Z,66.59
2016-07-31T04:25:16.823Z,66.88
2016-07-31T04:26:16.820Z,66.59
2016-07-31T04:27:16.818Z,66.5
2016-07-31T04:28:16.815Z,66.5
2016-07-31T04:29:16.817Z,66.69
2016-07-31T04:30:16.815Z,66.5
2016-07-31T04:31:16.823Z,66.5
2016-07-31T04:32:16.816Z,66.4
2016-07-31T04:33:16.817Z,66.88
2016-07-31T04:34:16.819Z,66.4
2016-07-31T04:35:16.815Z,67.27
2016-07-31T04:36:16.816Z,66.88
2016-07-31T04:37:16.814Z,66.88
2016-07-31T04:38:16.813Z,66.88
2016-07-31T04:39:16.817Z,66.88
2016-07-31T04:40:16.816Z,66.88
2016-07-31T04:41:16.817Z,66.78
2016-07-31T04:42:16.816Z,66.69
2016-07-31T04:43:16.813Z,66.59
2016-07-31T04:44:16.812Z,66.4
2016-07-31T04:45:16.819Z,66.69
2016-07-31T04:46:16.812Z,66.59
2016-07-31T04:47:17.016Z,66.88
2016-07-31T04:48:16.812Z,66.78
2016-07-31T04:49:16.818Z,66.78
2016-07-31T04:50:16.814Z,66.88
2016-07-31T04:51:16.810Z,66.78
2016-07-31T04:52:16.817Z,66.78
2016-07-31T04:53:16.814Z,66.78
2016-07-31T04:54:16.811Z,66.88
2016-07-31T04:55:17.021Z,66.78
2016-07-31T04:56:17.011Z,66.78
2016-07-31T04:57:16.816Z,67.17
2016-07-31T04:58:16.809Z,66.88
2016-07-31T04:59:16.817Z,66.78
2016-07-31T05:00:16.809Z,66.69
2016-07-31T05:01:17.059Z,66.78
2016-07-31T05:02:16.808Z,66.69
2016-07-31T05:03:16.805Z,66.69
2016-07-31T05:04:16.807Z,66.78
2016-07-31T05:05:16.812Z,66.66
2016-07-31T05:06:16.808Z,66.69
2016-07-31T05:07:16.809Z,66.88
2016-07-31T05:08:16.809Z,66.85
2016-07-31T05:09:16.810Z,66.78
2016-07-31T05:10:16.802Z,66.75
2016-07-31T05:11:16.809Z,66.85
2016-07-31T05:12:16.808Z,66.85
2016-07-31T05:13:16.808Z,66.66
2016-07-31T05:14:16.815Z,66.78
2016-07-31T05:15:16.803Z,66.69
2016-07-31T05:16:16.804Z,66.75
2016-07-31T05:17:16.805Z,66.66
2016-07-31T05:18:16.804Z,66.78
2016-07-31T05:19:16.806Z,66.85
2016-07-31T05:20:16.800Z,66.75
2016-07-31T05:21:16.804Z,66.85
2016-07-31T05:22:16.807Z,67.04
2016-07-31T05:23:16.805Z,66.85
2016-07-31T05:24:16.803Z,66.66
2016-07-31T05:25:17.003Z,66.88
2016-07-31T05:26:16.798Z,66.66
2016-07-31T05:27:16.801Z,66.85
2016-07-31T05:28:16.806Z,66.85
2016-07-31T05:29:16.800Z,66.75
2016-07-31T05:30:16.806Z,67.04
2016-07-31T05:31:16.801Z,66.94
2016-07-31T05:32:16.799Z,66.85
2016-07-31T05:33:17.006Z,66.75
2016-07-31T05:34:16.802Z,66.75
2016-07-31T05:35:16.799Z,66.78
2016-07-31T05:36:16.795Z,66.85
2016-07-31T05:37:16.802Z,66.75
2016-07-31T05:38:16.800Z,66.75
2016-07-31T05:39:16.793Z,66.69
2016-07-31T05:40:16.793Z,66.69
2016-07-31T05:41:16.796Z,66.78
2016-07-31T05:42:16.799Z,66.78
2016-07-31T05:43:16.787Z,66.66
2016-07-31T05:45:16.796Z,66.75
2016-07-31T05:46:16.793Z,66.75
2016-07-31T05:47:16.795Z,66.94
2016-07-31T05:48:16.792Z,66.94
2016-07-31T05:49:16.795Z,66.94
2016-07-31T05:50:16.791Z,66.78
2016-07-31T05:51:16.792Z,66.94
2016-07-31T05:52:16.803Z,66.94
2016-07-31T05:53:16.796Z,66.59
2016-07-31T05:54:16.793Z,66.75
2016-07-31T05:55:16.791Z,66.85
2016-07-31T05:56:16.791Z,66.75
2016-07-31T05:57:16.790Z,67.24
2016-07-31T05:58:16.790Z,67.36
2016-07-31T06:00:16.788Z,67.14
2016-07-31T06:01:16.838Z,66.66
2016-07-31T06:02:16.788Z,67.33
2016-07-31T06:03:16.792Z,66.94
2016-07-31T06:04:16.790Z,66.75
2016-07-31T06:05:16.793Z,66.75
2016-07-31T06:06:16.786Z,66.78
2016-07-31T06:07:16.987Z,66.75
2016-07-31T06:08:16.788Z,67.14
2016-07-31T06:09:16.798Z,67.14
2016-07-31T06:10:16.787Z,66.94
2016-07-31T06:11:16.784Z,67.17
2016-07-31T06:12:16.784Z,66.94
2016-07-31T06:13:16.987Z,66.75
2016-07-31T06:15:16.783Z,66.75
2016-07-31T06:16:16.780Z,66.75
2016-07-31T06:17:16.780Z,67.27
2016-07-31T06:18:16.785Z,67.04
2016-07-31T06:19:16.781Z,67.04
2016-07-31T06:20:16.780Z,67.04
2016-07-31T06:21:16.986Z,67.08
2016-07-31T06:22:16.784Z,67.14
2016-07-31T06:23:16.779Z,67.33
2016-07-31T06:24:16.779Z,67.04
2016-07-31T06:25:16.780Z,66.75
2016-07-31T06:26:16.773Z,67.14
2016-07-31T06:27:16.780Z,67.14
2016-07-31T06:28:16.781Z,66.88
2016-07-31T06:29:16.782Z,67.04
2016-07-31T06:30:16.778Z,67.33
2016-07-31T06:31:16.778Z,67.08
2016-07-31T06:32:16.786Z,66.88
2016-07-31T06:33:16.774Z,66.75
2016-07-31T06:34:16.775Z,66.78
2016-07-31T06:35:16.775Z,66.88
2016-07-31T06:36:16.774Z,66.59
2016-07-31T06:37:16.772Z,66.98
2016-07-31T06:38:16.973Z,66.78
2016-07-31T06:39:16.790Z,66.78
2016-07-31T06:40:16.773Z,66.88
2016-07-31T06:41:16.772Z,66.69
2016-07-31T06:42:16.773Z,66.98
2016-07-31T06:43:16.774Z,66.88
2016-07-31T06:44:16.775Z,66.98
2016-07-31T06:45:16.772Z,67.08
2016-07-31T06:46:16.771Z,66.88
2016-07-31T06:47:16.770Z,66.78
2016-07-31T06:48:16.967Z,66.78
2016-07-31T06:49:16.765Z,66.78
2016-07-31T06:50:16.769Z,66.78
2016-07-31T06:51:16.771Z,66.69
2016-07-31T06:52:16.763Z,66.69
2016-07-31T06:53:16.769Z,66.69
2016-07-31T06:54:16.767Z,66.88
2016-07-31T06:55:16.767Z,66.69
2016-07-31T06:56:16.771Z,66.78
2016-07-31T06:57:16.770Z,66.69
2016-07-31T06:58:16.768Z,66.88
2016-07-31T06:59:16.767Z,66.88
2016-07-31T07:00:16.983Z,66.78
2016-07-31T07:01:16.765Z,66.78
2016-07-31T07:02:16.775Z,66.88
2016-07-31T07:03:16.771Z,66.75
2016-07-31T07:04:16.765Z,66.69
2016-07-31T07:05:16.964Z,66.69
2016-07-31T07:06:16.766Z,66.88
2016-07-31T07:07:16.764Z,66.78
2016-07-31T07:08:16.759Z,66.69
2016-07-31T07:09:16.961Z,66.59
2016-07-31T07:10:16.760Z,66.88
2016-07-31T07:11:16.760Z,66.88
2016-07-31T07:12:16.758Z,66.69
2016-07-31T07:13:16.964Z,66.4
2016-07-31T07:14:16.758Z,66.5
2016-07-31T07:15:16.762Z,66.4
2016-07-31T07:16:16.959Z,66.5
2016-07-31T07:17:16.956Z,66.5
2016-07-31T07:18:16.759Z,66.4
2016-07-31T07:19:16.753Z,66.5
2016-07-31T07:20:16.761Z,66.5
2016-07-31T07:21:16.758Z,66.59
2016-07-31T07:22:16.763Z,66.59
2016-07-31T07:23:16.758Z,66.4
2016-07-31T07:24:16.956Z,66.5
2016-07-31T07:25:16.753Z,66.5
2016-07-31T07:26:16.753Z,66.5
2016-07-31T07:27:16.755Z,66.59
2016-07-31T07:28:16.755Z,66.59
2016-07-31T07:29:16.749Z,66.5
2016-07-31T07:30:16.747Z,66.5
2016-07-31T07:31:16.754Z,66.88
2016-07-31T07:32:16.750Z,66.69
2016-07-31T07:33:16.749Z,66.88
2016-07-31T07:34:16.955Z,66.5
2016-07-31T07:35:16.749Z,66.78
2016-07-31T07:36:16.754Z,66.88
2016-07-31T07:37:16.753Z,66.78
2016-07-31T07:38:16.953Z,66.78
2016-07-31T07:39:16.752Z,66.78
2016-07-31T07:40:16.744Z,66.78
2016-07-31T07:41:16.747Z,66.88
2016-07-31T07:42:16.751Z,66.78
2016-07-31T07:43:16.749Z,66.98
2016-07-31T07:44:16.751Z,66.98
2016-07-31T07:45:16.746Z,66.69
2016-07-31T07:46:16.742Z,66.78
2016-07-31T07:47:16.742Z,66.78
2016-07-31T07:48:16.747Z,66.88
2016-07-31T07:49:16.742Z,66.78
2016-07-31T07:50:16.743Z,66.59
2016-07-31T07:51:16.946Z,67.08
2016-07-31T07:52:16.747Z,66.4
2016-07-31T07:53:16.742Z,66.3
2016-07-31T07:54:16.740Z,66.4
2016-07-31T07:55:16.736Z,66.4
2016-07-31T07:56:16.933Z,66.3
2016-07-31T07:57:16.743Z,66.3
2016-07-31T07:58:16.737Z,66.4
2016-07-31T07:59:16.744Z,66.69
2016-07-31T08:00:16.742Z,66.4
2016-07-31T08:01:16.738Z,66.69
2016-07-31T08:02:16.744Z,66.4
2016-07-31T08:03:16.738Z,66.4
2016-07-31T08:04:16.744Z,66.69
2016-07-31T08:05:16.741Z,66.3
2016-07-31T08:06:16.740Z,66.69
2016-07-31T08:07:16.736Z,66.5
2016-07-31T08:08:16.943Z,66.4
2016-07-31T08:09:16.737Z,66.3
2016-07-31T08:10:16.742Z,66.3
2016-07-31T08:11:16.740Z,66.5
2016-07-31T08:12:16.859Z,66.3
2016-07-31T08:13:16.731Z,66.5
2016-07-31T08:14:16.738Z,66.5
2016-07-31T08:15:16.736Z,66.59
2016-07-31T08:16:16.753Z,66.5
2016-07-31T08:17:16.736Z,66.59
2016-07-31T08:18:16.731Z,66.5
2016-07-31T08:19:16.743Z,66.5
2016-07-31T08:20:16.728Z,66.5
2016-07-31T08:21:16.739Z,66.5
2016-07-31T08:22:16.737Z,66.69
2016-07-31T08:23:16.728Z,66.59
2016-07-31T08:24:16.932Z,66.5
2016-07-31T08:25:16.728Z,66.4
2016-07-31T08:26:16.931Z,66.59
2016-07-31T08:27:16.731Z,66.4
2016-07-31T08:28:16.730Z,66.11
2016-07-31T08:29:16.733Z,66.11
2016-07-31T08:30:16.739Z,66.5
2016-07-31T08:31:16.747Z,66.69
2016-07-31T08:32:16.743Z,66.2
2016-07-31T08:33:16.730Z,66.2
2016-07-31T08:34:16.731Z,66.69
2016-07-31T08:35:16.728Z,66.01
2016-07-31T08:36:16.725Z,66.69
2016-07-31T08:37:16.726Z,65.92
2016-07-31T08:38:16.727Z,66.59
2016-07-31T08:39:16.728Z,65.72
2016-07-31T08:40:16.724Z,66.01
2016-07-31T08:41:16.724Z,66.3
2016-07-31T08:42:16.720Z,66.2
2016-07-31T08:43:16.724Z,66.2
2016-07-31T08:44:16.726Z,66.3
2016-07-31T08:45:16.724Z,66.3
2016-07-31T08:46:16.723Z,66.2
2016-07-31T08:47:16.722Z,66.69
2016-07-31T08:48:16.720Z,65.82
2016-07-31T08:49:16.718Z,66.78
2016-07-31T08:50:16.720Z,66.2
2016-07-31T08:51:16.722Z,66.78
2016-07-31T08:52:16.715Z,66.2
2016-07-31T08:53:16.728Z,66.2
2016-07-31T08:54:16.718Z,66.01
2016-07-31T08:55:16.716Z,66.5
2016-07-31T08:56:16.731Z,66.78
2016-07-31T08:57:16.722Z,66.59
2016-07-31T08:58:16.713Z,66.4
2016-07-31T08:59:16.718Z,66.59
2016-07-31T09:00:16.718Z,66.5
2016-07-31T09:01:16.722Z,66.5
2016-07-31T09:02:16.714Z,66.5
2016-07-31T09:03:16.714Z,66.5
2016-07-31T09:04:16.715Z,66.4
2016-07-31T09:05:16.709Z,66.4
2016-07-31T09:06:16.709Z,66.59
2016-07-31T09:07:16.915Z,66.59
2016-07-31T09:08:16.716Z,66.59
2016-07-31T09:09:16.710Z,66.5
2016-07-31T09:10:16.714Z,66.5
2016-07-31T09:11:16.705Z,66.2
2016-07-31T09:12:16.713Z,66.5
2016-07-31T09:13:16.716Z,66.59
2016-07-31T09:14:16.716Z,66.5
2016-07-31T09:15:16.911Z,66.69
2016-07-31T09:16:16.714Z,66.2
2016-07-31T09:17:16.714Z,66.59
2016-07-31T09:18:16.709Z,66.59
2016-07-31T09:19:16.714Z,66.5
2016-07-31T09:20:16.911Z,66.4
2016-07-31T09:21:16.704Z,66.53
2016-07-31T09:22:16.702Z,66.69
2016-07-31T09:23:16.708Z,66.69
2016-07-31T09:24:16.701Z,66.69
2016-07-31T09:25:16.703Z,66.11
2016-07-31T09:26:16.710Z,65.82
2016-07-31T09:27:16.707Z,66.69
2016-07-31T09:28:16.712Z,66.69
2016-07-31T09:29:16.703Z,66.78
2016-07-31T09:30:16.706Z,66.2
2016-07-31T09:31:16.704Z,66.4
2016-07-31T09:32:16.701Z,66.4
2016-07-31T09:33:16.906Z,66.59
2016-07-31T09:34:16.703Z,66.43
2016-07-31T09:35:16.836Z,66.33
2016-07-31T09:36:16.955Z,66.14
2016-07-31T09:37:16.702Z,66.01
2016-07-31T09:38:16.707Z,66.05
2016-07-31T09:39:16.706Z,66.43
2016-07-31T09:40:16.703Z,66.14
2016-07-31T09:41:16.704Z,65.95
2016-07-31T09:42:16.699Z,66.05
2016-07-31T09:43:16.701Z,65.85
2016-07-31T09:44:16.699Z,65.85
2016-07-31T09:45:16.703Z,65.95
2016-07-31T09:46:16.700Z,66.24
2016-07-31T09:47:16.693Z,65.95
2016-07-31T09:48:16.703Z,65.95
2016-07-31T09:49:16.698Z,65.95
2016-07-31T09:50:16.704Z,66.05
2016-07-31T09:51:16.699Z,66.05
2016-07-31T09:52:16.699Z,66.05
2016-07-31T09:53:16.697Z,65.85
2016-07-31T09:54:16.699Z,65.66
2016-07-31T09:55:16.696Z,65.56
2016-07-31T09:56:16.696Z,65.75
2016-07-31T09:57:16.696Z,66.24
2016-07-31T09:58:16.697Z,65.85
2016-07-31T09:59:16.694Z,65.85
2016-07-31T10:00:16.695Z,65.95
2016-07-31T10:01:16.700Z,65.75
2016-07-31T10:02:16.691Z,65.75
2016-07-31T10:03:16.898Z,65.56
2016-07-31T10:04:16.690Z,65.75
2016-07-31T10:05:16.692Z,65.85
2016-07-31T10:06:16.693Z,65.75
2016-07-31T10:07:16.893Z,65.85
2016-07-31T10:08:16.693Z,65.75
2016-07-31T10:09:16.690Z,65.75
2016-07-31T10:10:16.692Z,65.85
2016-07-31T10:11:16.694Z,65.85
2016-07-31T10:12:16.692Z,66.05
2016-07-31T10:13:16.686Z,65.95
2016-07-31T10:14:16.691Z,65.75
2016-07-31T10:16:16.685Z,65.75
2016-07-31T10:17:16.891Z,65.95
2016-07-31T10:18:16.689Z,66.82
2016-07-31T10:19:16.687Z,66.33
2016-07-31T10:20:16.695Z,66.05
2016-07-31T10:21:16.686Z,66.05
2016-07-31T10:22:16.695Z,66.82
2016-07-31T10:23:16.684Z,66.53
2016-07-31T10:24:16.681Z,66.72
2016-07-31T10:25:16.682Z,66.53
2016-07-31T10:26:16.677Z,66.82
2016-07-31T10:27:16.684Z,66.43
2016-07-31T10:28:16.880Z,66.63
2016-07-31T10:29:16.682Z,66.33
2016-07-31T10:31:16.889Z,66.82
2016-07-31T10:32:16.682Z,66.91
2016-07-31T10:33:16.687Z,66.53
2016-07-31T10:34:16.682Z,66.53
2016-07-31T10:35:16.677Z,66.53
2016-07-31T10:36:16.880Z,66.63
2016-07-31T10:37:16.678Z,66.53
2016-07-31T10:38:16.681Z,66.63
2016-07-31T10:39:16.677Z,66.53
2016-07-31T10:40:16.881Z,66.53
2016-07-31T10:41:16.682Z,66.63
2016-07-31T10:42:16.678Z,66.53
2016-07-31T10:43:16.674Z,66.63
2016-07-31T10:44:16.675Z,66.82
2016-07-31T10:46:16.672Z,66.72
2016-07-31T10:47:16.670Z,66.82
2016-07-31T10:48:16.672Z,66.91
2016-07-31T10:49:16.678Z,67.11
2016-07-31T10:50:16.674Z,67.11
2016-07-31T10:51:16.678Z,66.91
2016-07-31T10:52:16.671Z,66.82
2016-07-31T10:53:16.811Z,67.01
2016-07-31T10:54:18.468Z,66.82
2016-07-31T10:55:19.404Z,66.72
2016-07-31T10:56:16.673Z,67.4
2016-07-31T10:57:16.870Z,66.63
2016-07-31T10:58:16.669Z,66.91
2016-07-31T10:59:16.673Z,67.01
2016-07-31T11:00:16.875Z,67.21
2016-07-31T11:01:16.662Z,67.69
2016-07-31T11:02:16.676Z,67.59
2016-07-31T11:03:16.669Z,67.59
2016-07-31T11:04:16.867Z,67.49
2016-07-31T11:05:16.667Z,67.63
2016-07-31T11:06:16.865Z,67.43
2016-07-31T11:07:16.666Z,67.63
2016-07-31T11:08:16.873Z,67.14
2016-07-31T11:09:16.763Z,67.43
2016-07-31T11:10:16.801Z,67.14
2016-07-31T11:11:16.667Z,67.53
2016-07-31T11:12:16.663Z,67.53
2016-07-31T11:13:16.666Z,67.33
2016-07-31T11:14:16.770Z,67.53
2016-07-31T11:15:16.671Z,67.82
2016-07-31T11:16:16.799Z,67.14
2016-07-31T11:17:16.665Z,67.14
2016-07-31T11:18:16.666Z,67.14
2016-07-31T11:19:16.662Z,66.95
2016-07-31T11:20:16.669Z,67.14
2016-07-31T11:21:16.673Z,67.05
2016-07-31T11:22:16.861Z,67.63
2016-07-31T11:23:16.663Z,67.53
2016-07-31T11:24:16.666Z,67.43
2016-07-31T11:25:16.661Z,67.53
2016-07-31T11:26:16.663Z,67.53
2016-07-31T11:27:16.666Z,67.63
2016-07-31T11:28:16.663Z,67.53
2016-07-31T11:29:16.666Z,67.63
2016-07-31T11:30:16.665Z,67.72
2016-07-31T11:31:16.659Z,67.53
2016-07-31T11:32:16.865Z,67.53
2016-07-31T11:33:16.658Z,67.63
2016-07-31T11:34:16.661Z,67.63
2016-07-31T11:35:16.660Z,67.91
2016-07-31T11:36:16.667Z,67.63
2016-07-31T11:37:16.655Z,67.53
2016-07-31T11:38:16.658Z,67.72
2016-07-31T11:39:16.661Z,67.72
2016-07-31T11:40:16.658Z,67.72
2016-07-31T11:41:16.661Z,67.43
2016-07-31T11:42:16.657Z,67.82
2016-07-31T11:43:16.661Z,67.33
2016-07-31T11:44:16.656Z,67.53
2016-07-31T11:45:16.659Z,67.33
2016-07-31T11:46:16.658Z,67.43
2016-07-31T11:47:16.656Z,67.63
2016-07-31T11:48:16.867Z,67.63
2016-07-31T11:49:16.665Z,67.43
2016-07-31T11:50:16.670Z,67.53
2016-07-31T11:51:16.661Z,67.53
2016-07-31T11:52:16.859Z,67.43
2016-07-31T11:53:16.657Z,67.72
2016-07-31T11:54:16.670Z,67.63
2016-07-31T11:55:16.662Z,67.43
2016-07-31T11:56:16.663Z,67.33
2016-07-31T11:57:16.663Z,67.14
2016-07-31T11:58:17.524Z,67.14
2016-07-31T11:59:16.657Z,67.05
2016-07-31T12:00:16.656Z,67.18
2016-07-31T12:01:16.656Z,66.95
2016-07-31T12:02:16.654Z,67.08
2016-07-31T12:03:16.656Z,67.14
2016-07-31T12:04:16.657Z,67.05
2016-07-31T12:05:16.654Z,67.08
2016-07-31T12:06:16.654Z,67.14
2016-07-31T12:07:16.666Z,67.05
2016-07-31T12:08:16.863Z,67.43
2016-07-31T12:09:16.664Z,67.24
2016-07-31T12:10:16.661Z,67.14
2016-07-31T12:11:16.869Z,67.14
2016-07-31T12:12:16.659Z,67.14
2016-07-31T12:13:16.696Z,67.14
2016-07-31T12:14:16.660Z,67.05
2016-07-31T12:15:16.662Z,66.95
2016-07-31T12:16:16.664Z,67.24
2016-07-31T12:17:16.659Z,66.85
2016-07-31T12:18:16.659Z,67.05
2016-07-31T12:19:16.655Z,67.05
2016-07-31T12:20:16.657Z,67.24
2016-07-31T12:21:16.660Z,67.14
2016-07-31T12:22:16.656Z,67.24
2016-07-31T12:23:16.661Z,67.05
2016-07-31T12:24:16.657Z,66.85
2016-07-31T12:25:16.690Z,67.24
2016-07-31T12:26:17.032Z,67.05
2016-07-31T12:27:16.659Z,66.98
2016-07-31T12:28:16.665Z,66.85
2016-07-31T12:29:16.667Z,66.98
2016-07-31T12:30:16.662Z,66.78
2016-07-31T12:31:16.860Z,66.5
2016-07-31T12:32:16.675Z,66.88
2016-07-31T12:33:16.659Z,66.6
2016-07-31T12:34:16.661Z,66.5
2016-07-31T12:35:16.857Z,66.98
2016-07-31T12:36:16.861Z,66.78
2016-07-31T12:37:16.661Z,66.98
2016-07-31T12:38:16.671Z,66.69
2016-07-31T12:39:16.661Z,66.98
2016-07-31T12:40:16.658Z,66.78
2016-07-31T12:41:16.667Z,66.5
2016-07-31T12:42:16.670Z,66.5
2016-07-31T12:43:16.676Z,66.69
2016-07-31T12:44:16.658Z,66.78
2016-07-31T12:45:16.660Z,66.98
2016-07-31T12:46:16.661Z,66.78
2016-07-31T12:47:16.662Z,66.88
2016-07-31T12:48:16.663Z,66.78
2016-07-31T12:49:16.660Z,66.88
2016-07-31T12:50:16.663Z,67.08
2016-07-31T12:51:16.660Z,66.88
2016-07-31T12:52:16.664Z,66.88
2016-07-31T12:53:16.660Z,67.18
2016-07-31T12:54:16.672Z,67.08
2016-07-31T12:55:16.865Z,67.18
2016-07-31T12:56:16.665Z,67.27
2016-07-31T12:57:16.659Z,67.18
2016-07-31T12:58:16.664Z,67.46
2016-07-31T12:59:16.658Z,67.66
2016-07-31T13:00:16.656Z,67.66
2016-07-31T13:01:16.760Z,67.56
2016-07-31T13:02:16.677Z,67.56
2016-07-31T13:03:16.667Z,67.46
2016-07-31T13:04:16.660Z,67.56
2016-07-31T13:05:16.656Z,67.46